createdAt,value
2023-08-30T00:00:42.544Z,21.16
2023-08-30T00:03:12.952Z,21.13
2023-08-30T00:05:42.278Z,21.15
2023-08-30T00:08:10.896Z,21.14
2023-08-30T00:10:40.792Z,21.24
2023-08-30T00:13:09.251Z,21.17
2023-08-30T00:15:37.553Z,21.16
2023-08-30T00:18:06.504Z,21.29
2023-08-30T00:20:35.226Z,21.38
2023-08-30T00:23:03.359Z,21.27
2023-08-30T00:25:31.664Z,21.17
2023-08-30T00:28:01.524Z,21.36
2023-08-30T00:30:29.861Z,21.32
2023-08-30T00:32:58.094Z,21.30
2023-08-30T00:35:26.255Z,21.18
2023-08-30T00:37:54.424Z,20.90
2023-08-30T00:40:26.070Z,21.07
2023-08-30T00:42:54.996Z,20.84
2023-08-30T00:45:25.004Z,21.12
2023-08-30T00:47:53.828Z,21.06
2023-08-30T00:50:22.445Z,20.99
2023-08-30T00:52:53.165Z,20.93
2023-08-30T00:55:21.403Z,21.05
2023-08-30T00:57:49.404Z,20.98
2023-08-30T01:00:18.562Z,20.74
2023-08-30T01:02:48.161Z,20.55
2023-08-30T01:05:19.128Z,20.36
2023-08-30T01:07:47.231Z,20.44
2023-08-30T01:10:15.444Z,20.49
2023-08-30T01:12:50.796Z,20.61
2023-08-30T01:15:22.558Z,20.73
2023-08-30T01:17:55.815Z,20.77
2023-08-30T01:20:25.708Z,20.72
2023-08-30T01:23:00.500Z,20.53
2023-08-30T01:25:38.912Z,20.58
2023-08-30T01:28:10.390Z,20.77
2023-08-30T01:30:42.549Z,20.80
2023-08-30T01:33:11.627Z,20.71
2023-08-30T01:35:42.335Z,20.69
2023-08-30T01:38:12.290Z,20.85
2023-08-30T01:40:43.480Z,20.72
2023-08-30T01:43:13.669Z,20.51
2023-08-30T01:45:46.319Z,20.51
2023-08-30T01:48:16.785Z,20.71
2023-08-30T01:50:46.146Z,20.66
2023-08-30T01:53:16.035Z,20.35
2023-08-30T01:55:45.299Z,20.01
2023-08-30T01:58:14.790Z,18.90
2023-08-30T02:00:43.185Z,18.92
2023-08-30T02:03:12.275Z,18.76
2023-08-30T02:05:45.972Z,18.55
2023-08-30T02:08:19.292Z,18.38
2023-08-30T02:10:54.785Z,18.43
2023-08-30T02:13:29.103Z,18.58
2023-08-30T02:15:58.232Z,18.69
2023-08-30T02:18:28.284Z,18.54
2023-08-30T02:20:58.728Z,19.07
2023-08-30T02:23:27.400Z,19.01
2023-08-30T02:25:57.537Z,18.89
2023-08-30T02:28:27.324Z,18.96
2023-08-30T02:30:56.227Z,18.96
2023-08-30T02:33:24.302Z,18.96
2023-08-30T02:35:52.443Z,19.09
2023-08-30T02:38:20.414Z,19.14
2023-08-30T02:40:48.573Z,19.18
2023-08-30T02:43:17.033Z,19.12
2023-08-30T02:45:46.627Z,19.19
2023-08-30T02:48:14.643Z,19.16
2023-08-30T02:50:43.065Z,19.16
2023-08-30T02:53:11.269Z,19.23
2023-08-30T02:55:39.280Z,19.27
2023-08-30T02:58:07.804Z,19.20
2023-08-30T03:00:36.511Z,19.22
2023-08-30T03:03:06.650Z,19.25
2023-08-30T03:05:35.040Z,19.22
2023-08-30T03:08:03.049Z,19.04
2023-08-30T03:10:31.167Z,19.28
2023-08-30T03:13:00.582Z,19.16
2023-08-30T03:15:28.778Z,18.75
2023-08-30T03:17:57.009Z,19.22
2023-08-30T03:20:26.588Z,19.20
2023-08-30T03:22:54.776Z,19.21
2023-08-30T03:25:22.882Z,19.11
2023-08-30T03:27:51.147Z,18.81
2023-08-30T03:30:19.486Z,19.08
2023-08-30T03:32:47.700Z,18.69
2023-08-30T03:35:18.590Z,18.97
2023-08-30T03:37:48.322Z,19.00
2023-08-30T03:40:16.407Z,18.95
2023-08-30T03:42:44.631Z,18.91
2023-08-30T03:45:12.986Z,18.73
2023-08-30T03:47:41.477Z,18.71
2023-08-30T03:50:10.593Z,18.67
2023-08-30T03:52:38.958Z,18.49
2023-08-30T03:55:09.607Z,18.27
2023-08-30T03:57:37.735Z,18.38
2023-08-30T04:00:06.866Z,18.34
2023-08-30T04:02:34.831Z,18.60
2023-08-30T04:05:02.999Z,18.57
2023-08-30T04:07:31.206Z,18.47
2023-08-30T04:10:00.117Z,18.48
2023-08-30T04:12:30.021Z,18.58
2023-08-30T04:14:58.419Z,18.69
2023-08-30T04:17:26.622Z,18.68
2023-08-30T04:19:55.340Z,18.65
2023-08-30T04:22:23.596Z,18.55
2023-08-30T04:24:52.209Z,18.78
2023-08-30T04:27:20.764Z,18.85
2023-08-30T04:29:50.636Z,19.15
2023-08-30T04:32:18.691Z,19.44
2023-08-30T04:34:47.090Z,19.58
2023-08-30T04:37:16.223Z,20.25
2023-08-30T04:39:44.610Z,20.15
2023-08-30T04:42:12.866Z,20.65
2023-08-30T04:44:41.138Z,20.79
2023-08-30T04:47:10.538Z,20.84
2023-08-30T04:49:39.178Z,20.89
2023-08-30T04:52:08.430Z,21.03
2023-08-30T04:54:36.727Z,20.88
2023-08-30T04:57:05.099Z,20.98
2023-08-30T04:59:33.303Z,20.97
2023-08-30T05:02:01.394Z,21.17
2023-08-30T05:04:31.191Z,21.01
2023-08-30T05:06:59.728Z,20.88
2023-08-30T05:09:28.226Z,20.82
2023-08-30T05:11:56.465Z,20.73
2023-08-30T05:14:25.154Z,20.60
2023-08-30T05:16:54.126Z,20.64
2023-08-30T05:19:22.551Z,20.40
2023-08-30T05:21:56.172Z,20.42
2023-08-30T05:24:24.715Z,20.56
2023-08-30T05:26:52.752Z,20.65
2023-08-30T05:29:21.174Z,20.81
2023-08-30T05:31:49.681Z,20.73
2023-08-30T05:34:17.870Z,20.90
2023-08-30T05:36:46.083Z,21.25
2023-08-30T05:39:15.769Z,21.37
2023-08-30T05:41:44.128Z,21.50
2023-08-30T05:44:12.252Z,21.65
2023-08-30T05:46:40.436Z,21.70
2023-08-30T05:49:09.254Z,21.79
2023-08-30T05:51:37.376Z,21.99
2023-08-30T05:54:06.040Z,22.29
2023-08-30T05:56:35.640Z,22.37
2023-08-30T05:59:03.822Z,22.50
2023-08-30T06:01:32.025Z,22.74
2023-08-30T06:04:00.156Z,23.01
2023-08-30T06:06:28.682Z,23.14
2023-08-30T06:08:56.785Z,22.96
2023-08-30T06:11:24.833Z,23.32
2023-08-30T06:13:54.696Z,23.59
2023-08-30T06:16:23.248Z,23.81
2023-08-30T06:18:51.777Z,23.66
2023-08-30T06:21:20.007Z,23.86
2023-08-30T06:23:48.067Z,23.54
2023-08-30T06:26:17.023Z,23.67
2023-08-30T06:28:55.087Z,23.49
2023-08-30T06:31:33.811Z,23.26
2023-08-30T06:34:02.163Z,23.29
2023-08-30T06:36:30.101Z,23.28
2023-08-30T06:38:58.040Z,23.83
2023-08-30T06:41:27.463Z,23.83
2023-08-30T06:43:55.936Z,23.64
2023-08-30T06:46:24.395Z,24.05
2023-08-30T06:48:56.225Z,23.93
2023-08-30T06:51:24.585Z,24.36
2023-08-30T06:53:52.941Z,25.02
2023-08-30T06:56:21.298Z,25.13
2023-08-30T06:58:49.622Z,25.17
2023-08-30T07:01:17.631Z,25.72
2023-08-30T07:03:55.466Z,25.62
2023-08-30T07:06:25.523Z,25.56
2023-08-30T07:08:53.525Z,25.74
2023-08-30T07:11:32.823Z,25.70
2023-08-30T07:14:02.380Z,26.13
2023-08-30T07:16:31.028Z,26.02
2023-08-30T07:18:59.532Z,25.99
2023-08-30T07:21:28.861Z,25.75
2023-08-30T07:23:57.207Z,25.74
2023-08-30T07:26:25.300Z,25.70
2023-08-30T07:28:53.969Z,25.50
2023-08-30T07:31:22.990Z,25.92
2023-08-30T07:33:51.152Z,25.92
2023-08-30T07:36:20.455Z,25.88
2023-08-30T07:38:50.916Z,26.26
2023-08-30T07:41:18.958Z,26.79
2023-08-30T07:43:47.226Z,27.06
2023-08-30T07:46:15.504Z,26.92
2023-08-30T07:48:43.775Z,26.75
2023-08-30T07:51:12.067Z,27.09
2023-08-30T07:53:40.331Z,27.38
2023-08-30T07:56:09.974Z,26.66
2023-08-30T07:58:38.361Z,27.13
2023-08-30T08:01:06.555Z,27.32
2023-08-30T08:03:34.681Z,27.19
2023-08-30T08:06:02.834Z,26.77
2023-08-30T08:08:30.961Z,26.96
2023-08-30T08:10:58.985Z,27.32
2023-08-30T08:13:28.671Z,26.96
2023-08-30T08:15:58.970Z,27.31
2023-08-30T08:18:28.469Z,27.20
2023-08-30T08:20:56.636Z,26.79
2023-08-30T08:23:25.116Z,26.52
2023-08-30T08:26:00.471Z,26.29
2023-08-30T08:28:33.645Z,26.60
2023-08-30T08:31:04.242Z,26.49
2023-08-30T08:33:32.543Z,26.22
2023-08-30T08:36:00.803Z,26.45
2023-08-30T08:38:31.756Z,26.26
2023-08-30T08:41:04.745Z,26.58
2023-08-30T08:43:36.883Z,26.73
2023-08-30T08:46:07.853Z,26.70
2023-08-30T08:48:41.988Z,26.66
2023-08-30T08:51:10.836Z,26.64
2023-08-30T08:53:40.614Z,26.55
2023-08-30T08:56:10.406Z,26.80
2023-08-30T08:58:40.816Z,26.90
2023-08-30T09:01:21.412Z,27.03
2023-08-30T09:03:53.770Z,26.58
2023-08-30T09:06:23.507Z,27.20
2023-08-30T09:08:51.990Z,27.30
2023-08-30T09:11:20.164Z,27.24
2023-08-30T09:13:50.214Z,27.15
2023-08-30T09:16:19.070Z,26.69
2023-08-30T09:19:00.345Z,26.92
2023-08-30T09:21:35.316Z,26.98
2023-08-30T09:24:05.177Z,27.01
2023-08-30T09:26:34.211Z,26.87
2023-08-30T09:29:07.830Z,26.87
2023-08-30T09:31:37.925Z,27.17
2023-08-30T09:34:07.046Z,27.71
2023-08-30T09:36:38.656Z,27.73
2023-08-30T09:39:07.400Z,27.32
2023-08-30T09:41:35.903Z,27.57
2023-08-30T09:44:17.095Z,27.96
2023-08-30T09:46:51.715Z,28.03
2023-08-30T09:49:23.420Z,28.13
2023-08-30T09:51:53.923Z,27.88
2023-08-30T09:54:38.158Z,28.14
2023-08-30T09:57:08.088Z,27.78
2023-08-30T09:59:39.166Z,27.48
2023-08-30T10:02:08.212Z,27.27
2023-08-30T10:04:40.656Z,28.05
2023-08-30T10:07:09.240Z,28.24
2023-08-30T10:09:48.572Z,28.26
2023-08-30T10:12:22.969Z,28.17
2023-08-30T10:14:52.705Z,27.72
2023-08-30T10:17:23.950Z,27.64
2023-08-30T10:19:54.037Z,28.09
2023-08-30T10:22:23.903Z,28.31
2023-08-30T10:25:11.119Z,28.31
2023-08-30T10:27:44.393Z,28.39
2023-08-30T10:30:18.077Z,28.86
2023-08-30T10:32:48.155Z,29.08
2023-08-30T10:35:17.925Z,29.34
2023-08-30T10:37:56.457Z,29.65
2023-08-30T10:40:24.793Z,29.45
2023-08-30T10:43:03.533Z,29.33
2023-08-30T10:45:36.171Z,28.62
2023-08-30T10:48:05.140Z,28.36
2023-08-30T10:50:34.666Z,28.08
2023-08-30T10:53:03.217Z,28.21
2023-08-30T10:55:31.422Z,28.54
2023-08-30T10:58:05.741Z,28.71
2023-08-30T11:00:37.198Z,28.73
2023-08-30T11:03:06.560Z,28.60
2023-08-30T11:05:34.743Z,28.73
2023-08-30T11:08:03.151Z,28.98
2023-08-30T11:10:31.255Z,29.29
2023-08-30T11:12:59.800Z,29.74
2023-08-30T11:15:28.588Z,29.84
2023-08-30T11:18:06.400Z,30.15
2023-08-30T11:20:34.524Z,30.11
2023-08-30T11:23:05.579Z,29.69
2023-08-30T11:25:33.620Z,29.12
2023-08-30T11:28:05.398Z,29.09
2023-08-30T11:30:34.031Z,29.01
2023-08-30T11:33:02.177Z,29.13
2023-08-30T11:35:32.683Z,29.14
2023-08-30T11:38:02.501Z,29.44
2023-08-30T11:40:30.624Z,29.48
2023-08-30T11:42:59.591Z,29.84
2023-08-30T11:45:27.708Z,29.85
2023-08-30T11:47:56.231Z,30.05
2023-08-30T11:50:30.404Z,30.24
2023-08-30T11:53:06.277Z,30.50
2023-08-30T11:55:35.051Z,30.57
2023-08-30T11:58:04.468Z,30.16
2023-08-30T12:00:36.497Z,29.65
2023-08-30T12:03:04.967Z,29.79
2023-08-30T12:05:35.114Z,29.66
2023-08-30T12:08:03.392Z,29.53
2023-08-30T12:10:33.823Z,29.87
2023-08-30T12:13:02.323Z,29.68
2023-08-30T12:15:35.822Z,29.70
2023-08-30T12:18:09.298Z,29.64
2023-08-30T12:20:37.922Z,29.52
2023-08-30T12:23:06.167Z,30.02
2023-08-30T12:25:35.591Z,30.37
2023-08-30T12:28:04.967Z,30.21
2023-08-30T12:30:33.531Z,30.18
2023-08-30T12:33:03.967Z,30.09
2023-08-30T12:35:32.175Z,30.08
2023-08-30T12:38:00.554Z,30.06
2023-08-30T12:40:28.793Z,30.07
2023-08-30T12:42:58.321Z,30.23
2023-08-30T12:45:26.529Z,30.21
2023-08-30T12:47:54.977Z,30.34
2023-08-30T12:50:23.495Z,30.36
2023-08-30T12:52:51.575Z,30.32
2023-08-30T12:55:20.424Z,30.31
2023-08-30T12:57:49.046Z,30.36
2023-08-30T13:00:19.292Z,30.04
2023-08-30T13:02:47.419Z,30.62
2023-08-30T13:05:16.094Z,30.98
2023-08-30T13:07:44.574Z,31.00
2023-08-30T13:10:13.407Z,31.16
2023-08-30T13:12:45.425Z,30.86
2023-08-30T13:15:14.107Z,30.70
2023-08-30T13:17:43.899Z,30.26
2023-08-30T13:20:13.302Z,30.32
2023-08-30T13:22:41.526Z,30.16
2023-08-30T13:25:10.104Z,30.22
2023-08-30T13:27:38.247Z,30.08
2023-08-30T13:30:09.179Z,30.16
2023-08-30T13:32:37.276Z,30.14
2023-08-30T13:35:07.836Z,30.11
2023-08-30T13:37:35.811Z,29.96
2023-08-30T13:40:07.193Z,30.48
2023-08-30T13:45:05.590Z,30.75
2023-08-30T13:47:33.775Z,30.65
2023-08-30T13:50:05.240Z,30.62
2023-08-30T13:52:35.031Z,30.74
2023-08-30T13:55:03.651Z,30.72
2023-08-30T13:57:32.021Z,30.50
2023-08-30T14:00:00.189Z,30.58
2023-08-30T14:02:28.581Z,30.98
2023-08-30T14:04:59.598Z,31.09
2023-08-30T14:07:27.672Z,31.00
2023-08-30T14:09:57.833Z,30.84
2023-08-30T14:12:28.882Z,30.56
2023-08-30T14:14:58.035Z,30.88
2023-08-30T14:17:29.511Z,30.92
2023-08-30T14:19:57.609Z,31.23
2023-08-30T14:22:25.951Z,31.26
2023-08-30T14:25:10.692Z,31.29
2023-08-30T14:27:42.395Z,31.28
2023-08-30T14:30:14.456Z,31.21
2023-08-30T14:32:44.702Z,31.30
2023-08-30T14:35:14.049Z,31.04
2023-08-30T14:37:42.473Z,31.39
2023-08-30T14:40:11.386Z,31.42
2023-08-30T14:42:39.590Z,31.29
2023-08-30T14:45:10.847Z,31.53
2023-08-30T14:47:42.374Z,31.54
2023-08-30T14:50:11.021Z,31.66
2023-08-30T14:52:40.018Z,31.65
2023-08-30T14:55:09.875Z,31.36
2023-08-30T14:57:38.375Z,31.09
2023-08-30T15:00:09.653Z,31.26
2023-08-30T15:02:38.236Z,31.23
2023-08-30T15:05:06.859Z,31.27
2023-08-30T15:07:35.232Z,30.85
2023-08-30T15:10:03.860Z,30.71
2023-08-30T15:12:31.946Z,30.45
2023-08-30T15:15:00.284Z,30.40
2023-08-30T15:17:29.960Z,30.00
2023-08-30T15:19:58.342Z,29.66
2023-08-30T15:22:26.690Z,29.14
2023-08-30T15:24:55.081Z,29.07
2023-08-30T15:27:23.557Z,29.01
2023-08-30T15:29:55.059Z,29.01
2023-08-30T15:32:23.611Z,28.49
2023-08-30T15:34:53.598Z,28.35
2023-08-30T15:37:21.802Z,28.00
2023-08-30T15:40:02.445Z,27.75
2023-08-30T15:42:31.840Z,27.77
2023-08-30T15:45:00.297Z,27.74
2023-08-30T15:47:29.147Z,27.56
2023-08-30T15:49:59.795Z,27.16
2023-08-30T15:52:28.709Z,27.65
2023-08-30T15:54:58.739Z,27.52
2023-08-30T15:57:26.880Z,27.61
2023-08-30T15:59:55.102Z,27.57
2023-08-30T16:02:23.256Z,27.54
2023-08-30T16:04:51.862Z,27.67
2023-08-30T16:07:21.732Z,27.88
2023-08-30T16:09:49.870Z,27.96
2023-08-30T16:12:18.121Z,28.06
2023-08-30T16:14:46.106Z,27.98
2023-08-30T16:17:14.130Z,28.06
2023-08-30T16:19:42.220Z,28.02
2023-08-30T16:22:10.521Z,28.04
2023-08-30T16:24:40.456Z,28.12
2023-08-30T16:27:09.217Z,28.01
2023-08-30T16:29:37.661Z,28.03
2023-08-30T16:32:06.689Z,28.08
2023-08-30T16:34:35.673Z,27.80
2023-08-30T16:37:05.273Z,28.08
2023-08-30T16:39:33.581Z,27.93
2023-08-30T16:42:03.868Z,27.78
2023-08-30T16:44:31.984Z,27.55
2023-08-30T16:47:00.152Z,27.51
2023-08-30T16:49:28.373Z,27.43
2023-08-30T16:51:57.064Z,27.35
2023-08-30T16:54:25.741Z,27.09
2023-08-30T16:56:56.840Z,27.06
2023-08-30T16:59:26.337Z,26.88
2023-08-30T17:01:54.408Z,26.84
2023-08-30T17:04:22.574Z,26.74
2023-08-30T17:06:51.134Z,26.67
2023-08-30T17:09:19.224Z,26.59
2023-08-30T17:11:47.269Z,26.57
2023-08-30T17:14:17.971Z,26.63
2023-08-30T17:16:47.900Z,26.50
2023-08-30T17:19:16.008Z,26.39
2023-08-30T17:21:44.046Z,26.43
2023-08-30T17:24:12.490Z,26.42
2023-08-30T17:26:41.146Z,26.17
2023-08-30T17:29:10.012Z,26.11
2023-08-30T17:31:38.861Z,25.77
2023-08-30T17:34:08.455Z,25.83
2023-08-30T17:36:38.993Z,25.79
2023-08-30T17:39:07.027Z,25.53
2023-08-30T17:41:36.713Z,25.59
2023-08-30T17:44:04.901Z,25.37
2023-08-30T17:46:34.203Z,25.35
2023-08-30T17:49:02.751Z,25.36
2023-08-30T17:51:32.600Z,25.32
2023-08-30T17:54:01.225Z,25.28
2023-08-30T17:56:29.269Z,25.17
2023-08-30T17:58:57.781Z,25.15
2023-08-30T18:01:28.806Z,25.02
2023-08-30T18:03:57.110Z,25.10
2023-08-30T18:06:26.394Z,25.05
2023-08-30T18:08:55.774Z,25.04
2023-08-30T18:11:25.287Z,25.09
2023-08-30T18:13:53.757Z,25.05
2023-08-30T18:16:25.031Z,25.02
2023-08-30T18:18:56.139Z,25.01
2023-08-30T18:21:25.384Z,25.01
2023-08-30T18:24:17.969Z,25.10
2023-08-30T18:26:48.772Z,24.99
2023-08-30T18:29:18.538Z,24.94
2023-08-30T18:31:49.507Z,25.05
2023-08-30T18:34:19.488Z,25.18
2023-08-30T18:36:47.864Z,24.94
2023-08-30T18:39:18.273Z,25.09
2023-08-30T18:41:46.265Z,24.96
2023-08-30T18:44:14.263Z,24.90
2023-08-30T18:46:42.634Z,25.05
2023-08-30T18:49:10.865Z,25.13
2023-08-30T18:51:39.039Z,24.95
2023-08-30T18:54:07.970Z,24.94
2023-08-30T18:56:37.396Z,24.94
2023-08-30T18:59:06.542Z,24.94
2023-08-30T19:01:34.842Z,24.83
2023-08-30T19:04:04.082Z,25.12
2023-08-30T19:06:32.396Z,24.94
2023-08-30T19:09:00.495Z,24.94
2023-08-30T19:11:29.546Z,25.01
2023-08-30T19:13:59.376Z,24.87
2023-08-30T19:16:27.582Z,24.69
2023-08-30T19:18:56.283Z,24.67
2023-08-30T19:21:25.230Z,24.76
2023-08-30T19:23:53.217Z,24.59
2023-08-30T19:26:22.676Z,24.65
2023-08-30T19:28:51.024Z,24.71
2023-08-30T19:31:23.337Z,24.46
2023-08-30T19:33:52.424Z,24.59
2023-08-30T19:36:23.017Z,24.41
2023-08-30T19:38:53.586Z,24.22
2023-08-30T19:41:21.845Z,24.43
2023-08-30T19:43:55.451Z,24.40
2023-08-30T19:46:25.435Z,24.29
2023-08-30T19:48:54.658Z,24.03
2023-08-30T19:51:25.569Z,24.22
2023-08-30T19:53:55.725Z,23.94
2023-08-30T19:56:24.367Z,24.19
2023-08-30T19:58:53.032Z,24.34
2023-08-30T20:01:21.813Z,24.27
2023-08-30T20:03:53.666Z,24.32
2023-08-30T20:06:22.077Z,24.37
2023-08-30T20:08:50.183Z,24.34
2023-08-30T20:11:18.364Z,24.28
2023-08-30T20:13:46.544Z,24.22
2023-08-30T20:16:16.555Z,24.19
2023-08-30T20:18:44.712Z,24.06
2023-08-30T20:21:17.484Z,23.85
2023-08-30T20:23:45.943Z,23.90
2023-08-30T20:26:14.419Z,23.85
2023-08-30T20:28:43.391Z,23.85
2023-08-30T20:31:14.050Z,23.77
2023-08-30T20:33:42.276Z,23.62
2023-08-30T20:36:11.615Z,23.80
2023-08-30T20:38:41.054Z,23.88
2023-08-30T20:41:09.458Z,23.78
2023-08-30T20:43:37.973Z,23.80
2023-08-30T20:46:07.143Z,23.81
2023-08-30T20:48:35.820Z,23.71
2023-08-30T20:51:04.706Z,23.62
2023-08-30T20:53:36.901Z,23.49
2023-08-30T20:56:09.777Z,23.43
2023-08-30T20:58:42.904Z,23.00
2023-08-30T21:01:11.112Z,22.98
2023-08-30T21:03:40.262Z,22.70
2023-08-30T21:06:09.188Z,22.47
2023-08-30T21:08:40.560Z,22.24
2023-08-30T21:11:11.024Z,22.17
2023-08-30T21:13:39.301Z,22.08
2023-08-30T21:16:07.506Z,22.14
2023-08-30T21:18:35.605Z,22.23
2023-08-30T21:21:04.000Z,22.17
2023-08-30T21:23:32.219Z,22.05
2023-08-30T21:26:00.884Z,21.98
2023-08-30T21:28:33.754Z,22.07
2023-08-30T21:31:02.424Z,22.02
2023-08-30T21:33:30.655Z,22.07
2023-08-30T21:36:04.742Z,22.00
2023-08-30T21:38:32.953Z,21.95
2023-08-30T21:41:01.715Z,21.83
2023-08-30T21:43:31.524Z,21.83
2023-08-30T21:45:59.643Z,21.78
2023-08-30T21:48:28.230Z,21.76
2023-08-30T21:50:57.984Z,21.76
2023-08-30T21:53:27.666Z,21.86
2023-08-30T21:55:56.139Z,21.95
2023-08-30T21:58:24.526Z,22.21
2023-08-30T22:00:55.137Z,22.08
2023-08-30T22:03:23.640Z,21.65
2023-08-30T22:05:51.852Z,22.26
2023-08-30T22:08:20.389Z,22.34
2023-08-30T22:10:48.451Z,22.12
2023-08-30T22:13:16.902Z,22.08
2023-08-30T22:15:45.195Z,22.11
2023-08-30T22:18:16.676Z,22.14
2023-08-30T22:20:44.730Z,22.37
2023-08-30T22:23:13.178Z,22.50
2023-08-30T22:25:41.465Z,22.56
2023-08-30T22:28:09.797Z,22.72
2023-08-30T22:30:38.294Z,22.65
2023-08-30T22:33:08.693Z,22.56
2023-08-30T22:35:38.446Z,22.61
2023-08-30T22:38:07.285Z,22.66
2023-08-30T22:40:35.344Z,22.56
2023-08-30T22:43:07.535Z,22.37
2023-08-30T22:45:35.786Z,22.41
2023-08-30T22:48:04.274Z,22.45
2023-08-30T22:50:32.988Z,22.53
2023-08-30T22:53:02.496Z,22.48
2023-08-30T22:55:30.679Z,22.45
2023-08-30T22:57:58.856Z,22.36
2023-08-30T23:00:28.777Z,22.24
2023-08-30T23:02:56.881Z,22.39
2023-08-30T23:05:25.004Z,22.40
2023-08-30T23:07:53.372Z,22.43
2023-08-30T23:10:25.807Z,22.47
2023-08-30T23:12:54.188Z,22.27
2023-08-30T23:15:23.801Z,22.40
2023-08-30T23:17:52.652Z,22.36
2023-08-30T23:20:21.636Z,22.36
2023-08-30T23:22:51.292Z,21.72
2023-08-30T23:25:20.002Z,22.27
2023-08-30T23:27:51.414Z,22.22
2023-08-30T23:30:19.551Z,22.23
2023-08-30T23:32:47.926Z,22.16
2023-08-30T23:35:15.973Z,21.65
2023-08-30T23:37:44.296Z,21.87
2023-08-30T23:40:12.786Z,21.71
2023-08-30T23:42:41.425Z,21.70
2023-08-30T23:45:12.409Z,21.40
2023-08-30T23:47:40.933Z,21.59
2023-08-30T23:50:10.077Z,21.38
2023-08-30T23:52:38.255Z,21.39
2023-08-30T23:55:07.380Z,21.47
2023-08-30T23:57:35.717Z,21.55
